Flight Track Log - Related Links

Times and Time Zones

All times are in EDT time to prevent confusion due to time zone crossing. See the N531QS flight status page for this flight to view local times or setup timezone preferences in your user account.

Time Position Orientation Groundspeed Altitude Reporting Facility
EDT Latitude Longitude Course Direction KTS MPH feet Rate Location/Type
Thu 11:49:51 PM 40.8333 -74.0833 246° West 153 176 1,300  Level New York TRACON
Thu 11:50:51 PM 40.8167 -74.1333 246° West 180 207 1,600 1,600 Climbing New York TRACON
Thu 11:51:51 PM 40.8000 -74.2167 255° West 215 247 4,500 2,250 Climbing New York TRACON
Thu 11:52:51 PM 40.8333 -74.2833 303° West 254 292 6,100 800 Climbing New York TRACON
Thu 11:53:51 PM 40.9167 -74.2667 North 310 357 6,100 600 Level New York TRACON
Thu 11:54:51 PM 40.9833 -74.2167 30° Northeast 314 361 7,300 2,211 Climbing New York TRACON
Thu 11:57:01 PM 41.0872 -73.9850 59° Northeast 330 380 13,100 2,209 Climbing Boston Center
Thu 11:58:12 PM 41.1436 -73.8211 65° Northeast 389 448 14,700 1,591 Climbing Boston Center
Thu 11:59:13 PM 41.1911 -73.6869 65° Northeast 431 496 16,600 2,380 Climbing Boston Center
Fri 12:00:13 AM 41.2511 -73.5250 64° Northeast 437 503 19,500 2,400 Climbing Boston Center
Fri 12:01:13 AM 41.3025 -73.3739 66° East 437 503 21,400 1,800 Climbing Boston Center
Fri 12:02:13 AM 41.3556 -73.2200 65° Northeast 442 509 23,100 1,550 Climbing Boston Center
Fri 12:03:13 AM 41.4086 -73.0656 65° Northeast 447 514 24,500 1,450 Climbing Boston Center
Fri 12:04:13 AM 41.4658 -72.9056 64° Northeast 458 527 26,000 1,250 Climbing Boston Center
Fri 12:05:13 AM 41.5267 -72.7422 64° Northeast 468 539 27,000 800 Climbing Boston Center
Fri 12:06:13 AM 41.6083 -72.6011 52° Northeast 468 539 27,600 900 Climbing Boston Center
Fri 12:07:13 AM 41.6897 -72.4400 56° Northeast 494 568 28,800 1,050 Climbing Boston Center
Fri 12:08:13 AM 41.7689 -72.2731 58° Northeast 516 594 29,700 1,150 Climbing Boston Center
Fri 12:09:13 AM 41.8456 -72.1111 58° Northeast 522 601 31,100 1,450 Climbing Boston Center
Fri 12:10:13 AM 41.9219 -71.9492 58° Northeast 522 601 32,600 1,466 Climbing Boston Center
Fri 12:11:24 AM 41.9942 -71.7892 59° Northeast 517 595 34,300 1,682 Climbing Boston Center
Fri 12:12:25 AM 42.0847 -71.5953 58° Northeast 517 595 36,300 1,600 Climbing Boston Center
Fri 12:13:24 AM 42.1625 -71.4375 56° Northeast 512 589 37,500 1,300 Climbing Boston Center
Fri 12:14:25 AM 42.2339 -71.2764 59° Northeast 501 577 38,900 1,400 Climbing Boston Center
Fri 12:15:24 AM 42.3072 -71.1178 58° Northeast 501 577 40,300 1,050 Climbing Boston Center
Fri 12:16:25 AM 42.3761 -70.9589 60° Northeast 501 577 41,000 347 Climbing Boston Center
Fri 12:17:25 AM 42.4469 -70.7997 59° Northeast 501 577 41,000  Level Boston Center
Fri 12:18:25 AM 42.5175 -70.6372 59° Northeast 495 570 41,000  Level Boston Center
Fri 12:19:25 AM 42.5919 -70.4744 58° Northeast 495 570 41,000  Level Boston Center
Fri 12:20:25 AM 42.6639 -70.3056 60° Northeast 500 575 41,000  Level Boston Center
Fri 12:21:25 AM 42.7356 -70.1419 59° Northeast 500 575 41,000  Level Boston Center
Fri 12:22:25 AM 42.8072 -69.9778 59° Northeast 500 575 41,000  Level Boston Center
Fri 12:23:25 AM 42.8767 -69.8164 60° Northeast 500 575 41,000  Level Boston Center
Fri 12:24:25 AM 42.9478 -69.6517 59° Northeast 500 575 41,000  Level Boston Center
Fri 12:25:25 AM 43.0186 -69.4864 60° Northeast 500 575 41,000  Level Boston Center
Fri 12:26:37 AM 43.0872 -69.3239 60° Northeast 500 575 41,000  Level Boston Center
Fri 12:27:37 AM 43.1733 -69.1203 60° Northeast 505 581 41,000  Level Boston Center
Fri 12:28:37 AM 43.2414 -68.9569 60° Northeast 500 575 41,000  Level Boston Center
Fri 12:29:37 AM 43.3131 -68.7872 60° Northeast 500 575 41,000  Level Boston Center
Fri 12:30:37 AM 43.3828 -68.6172 61° Northeast 506 582 41,000  Level Boston Center
Fri 12:31:37 AM 43.4539 -68.4467 60° Northeast 506 582 41,000  Level Boston Center
Fri 12:32:37 AM 43.5231 -68.2789 60° Northeast 501 577 41,000  Level Boston Center
Fri 12:33:37 AM 43.5900 -68.1139 61° Northeast 501 577 41,000  Level Boston Center
Fri 12:34:37 AM 43.6586 -67.9481 60° Northeast 501 577 41,000  Level Boston Center
Fri 12:35:37 AM 43.7247 -67.7792 62° Northeast 501 577 41,000  Level Boston Center
Fri 12:36:37 AM 43.7928 -67.6069 61° Northeast 501 577 41,000  Level Boston Center
Fri 12:37:37 AM 43.8606 -67.4372 61° Northeast 501 577 41,000  Level Boston Center
Fri 12:38:36 AM 43.9150 -67.3031 61° Northeast 501 577 41,000  Level Boston Center
Fri 12:39:37 AM 43.9933 -67.0997 62° Northeast 501 577 41,000  Level Boston Center
Fri 12:40:58 AM 44.0833 -66.8667 62° Northeast 500 575 41,000  Level Moncton Center
Fri 12:41:58 AM 44.1333 -66.7000 67° East 500 575 41,000  Level Moncton Center
Fri 12:42:58 AM 44.2000 -66.5167 63° Northeast 500 575 41,000  Level Moncton Center
Fri 12:43:58 AM 44.2667 -66.3500 61° Northeast 500 575 41,000  Level Moncton Center
Fri 12:44:58 AM 44.3333 -66.1667 63° Northeast 520 598 41,000  Level Moncton Center
Fri 12:45:58 AM 44.4167 -65.9833 57° Northeast 520 598 41,000  Level Moncton Center
Fri 12:46:58 AM 44.4833 -65.8000 63° Northeast 520 598 41,000  Level Moncton Center
Fri 12:47:58 AM 44.5500 -65.6167 63° Northeast 520 598 41,000  Level Moncton Center
Fri 12:48:58 AM 44.6000 -65.4500 67° East 520 598 41,000  Level Moncton Center
Fri 12:49:58 AM 44.6833 -65.2500 60° Northeast 530 610 41,000  Level Moncton Center
Fri 12:50:58 AM 44.7500 -65.0500 65° Northeast 540 621 41,000  Level Moncton Center
Fri 12:51:58 AM 44.8000 -64.9000 65° Northeast 520 598 41,000  Level Moncton Center
Fri 12:52:58 AM 44.8833 -64.7000 59° Northeast 520 598 41,000  Level Moncton Center
Fri 12:53:58 AM 44.9333 -64.5167 69° East 520 598 41,000  Level Moncton Center
Fri 12:54:58 AM 45.0000 -64.3333 63° Northeast 520 598 41,000  Level Moncton Center
Fri 12:55:58 AM 45.0667 -64.1667 60° Northeast 530 610 41,000  Level Moncton Center
Fri 12:56:58 AM 45.1333 -63.9667 65° Northeast 530 610 41,000  Level Moncton Center
Fri 12:57:58 AM 45.2000 -63.7833 63° Northeast 520 598 41,000  Level Moncton Center
Fri 12:58:58 AM 45.2667 -63.5833 65° Northeast 520 598 41,000  Level Moncton Center
Fri 12:59:58 AM 45.3333 -63.4000 63° Northeast 520 598 41,000  Level Moncton Center
Fri 01:00:58 AM 45.4000 -63.2333 60° Northeast 520 598 41,000  Level Moncton Center
Fri 01:01:58 AM 45.4667 -63.0167 66° East 520 598 41,000  Level Moncton Center
Fri 01:02:58 AM 45.5333 -62.8500 60° Northeast 520 598 41,000  Level Moncton Center
Fri 01:03:58 AM 45.5833 -62.6500 70° East 520 598 41,000  Level Moncton Center
Fri 01:04:58 AM 45.6667 -62.4500 59° Northeast 520 598 41,000  Level Moncton Center
Fri 01:05:58 AM 45.7000 -62.2833 74° East 520 598 41,000  Level Moncton Center
Fri 01:06:58 AM 45.7833 -62.1000 57° Northeast 520 598 41,000  Level Moncton Center
Fri 01:07:58 AM 45.8333 -61.9000 70° East 530 610 41,000  Level Moncton Center
Fri 01:09:51 AM 45.9500 -61.5500 64° Northeast 530 610 41,000  Level Gander Center
Fri 01:10:51 AM 46.0167 -61.3500 64° Northeast 530 610 41,000  Level Gander Center
Fri 01:11:51 AM 46.0833 -61.1667 62° Northeast 530 610 41,000  Level Gander Center
Fri 01:12:51 AM 46.1500 -60.9500 66° East 530 610 41,000  Level Gander Center
Fri 01:13:51 AM 46.2000 -60.7833 67° East 530 610 41,000  Level Gander Center
Fri 01:14:51 AM 46.2667 -60.5833 64° Northeast 540 621 41,000  Level Gander Center
Fri 01:15:51 AM 46.3167 -60.3667 71° East 540 621 41,000  Level Gander Center
Fri 01:16:51 AM 46.3667 -60.1667 70° East 540 621 41,000  Level Gander Center
Fri 01:17:51 AM 46.4333 -59.9667 64° Northeast 540 621 41,000  Level Gander Center
Fri 01:18:51 AM 46.5000 -59.7833 62° Northeast 540 621 41,000  Level Gander Center
Fri 01:19:51 AM 46.5667 -59.5833 64° Northeast 540 621 41,000  Level Gander Center
Fri 01:20:51 AM 46.6333 -59.3667 66° East 540 621 41,000  Level Gander Center
Fri 01:21:51 AM 46.6667 -59.1667 76° East 540 621 41,000  Level Gander Center
Fri 01:22:51 AM 46.7333 -58.9667 64° Northeast 540 621 41,000  Level Gander Center
Fri 01:23:51 AM 46.8000 -58.7667 64° Northeast 530 610 41,000  Level Gander Center
Fri 01:24:51 AM 46.8500 -58.5667 70° East 530 610 41,000  Level Gander Center
Fri 01:25:51 AM 46.9000 -58.3500 71° East 540 621 41,000  Level Gander Center
Fri 01:26:51 AM 46.9667 -58.1667 62° Northeast 530 610 41,000  Level Gander Center
Fri 01:27:51 AM 47.0167 -57.9833 68° East 530 610 41,000  Level Gander Center
Fri 01:28:51 AM 47.0667 -57.7500 72° East 530 610 41,000  Level Gander Center
Fri 01:29:51 AM 47.1333 -57.5667 62° Northeast 540 621 41,000  Level Gander Center
Fri 01:30:51 AM 47.1833 -57.3500 71° East 540 621 41,000  Level Gander Center
Fri 01:31:51 AM 47.2333 -57.1500 70° East 540 621 41,000  Level Gander Center
Fri 01:32:51 AM 47.3000 -56.9500 64° Northeast 540 621 41,000  Level Gander Center
Fri 01:33:51 AM 47.3500 -56.7500 70° East 540 621 41,000  Level Gander Center
Fri 01:34:51 AM 47.4167 -56.5500 64° Northeast 540 621 41,000  Level Gander Center
Fri 01:35:51 AM 47.4667 -56.3333 71° East 540 621 41,000  Level Gander Center
Fri 01:36:51 AM 47.5333 -56.1167 65° Northeast 540 621 41,000  Level Gander Center
Fri 01:37:51 AM 47.5833 -55.9333 68° East 540 621 41,000  Level Gander Center
Fri 01:38:51 AM 47.6333 -55.7333 70° East 540 621 41,000  Level Gander Center
Fri 01:39:51 AM 47.7000 -55.5000 67° East 540 621 41,000  Level Gander Center
Fri 01:40:51 AM 47.7333 -55.3167 75° East 540 621 41,000  Level Gander Center
Fri 01:41:51 AM 47.8000 -55.0833 67° East 540 621 41,000  Level Gander Center
Fri 01:42:51 AM 47.8500 -54.8833 70° East 550 633 41,000  Level Gander Center
Fri 01:43:51 AM 47.9000 -54.6500 72° East 550 633 41,000  Level Gander Center
Fri 01:44:51 AM 47.9500 -54.4333 71° East 560 644 41,000  Level Gander Center
Fri 01:45:51 AM 48.0167 -54.2333 63° Northeast 560 644 41,000  Level Gander Center
Fri 01:46:51 AM 48.0833 -54.0000 67° East 560 644 41,000  Level Gander Center
Fri 01:47:51 AM 48.1167 -53.8000 76° East 560 644 41,000  Level Gander Center
Fri 01:48:51 AM 48.1833 -53.5833 65° Northeast 550 633 41,000  Level Gander Center
Fri 01:49:51 AM 48.2333 -53.3667 71° East 550 633 41,000  Level Gander Center
Fri 01:50:51 AM 48.2833 -53.1333 72° East 550 633 41,000  Level Gander Center
Fri 01:51:51 AM 48.3333 -52.9333 69° East 550 633 41,000  Level Gander Center
Fri 01:52:51 AM 48.3667 -52.7167 77° East 540 621 41,000  Level Gander Center
Fri 01:53:51 AM 48.4167 -52.5000 71° East 530 610 41,000  Level Gander Center
Fri 01:54:51 AM 48.4667 -52.3000 69° East 530 610 41,000  Level Gander Center
Fri 01:55:51 AM 48.5167 -52.0833 71° East 530 610 41,000  Level Gander Center
Fri 01:56:51 AM 48.5667 -51.8667 71° East 540 621 41,000  Level Gander Center
Fri 01:57:51 AM 48.6167 -51.6500 71° East 530 610 41,000  Level Gander Center
Fri 01:58:51 AM 48.6667 -51.4500 69° East 530 610 41,000  Level Gander Center
Fri 01:59:51 AM 48.7167 -51.2333 71° East 530 610 41,000  Level Gander Center
Fri 02:00:51 AM 48.7500 -51.0167 77° East 530 610 41,000  Level Gander Center
Fri 02:01:51 AM 48.8000 -50.8000 71° East 530 610 41,000  Level Gander Center
Fri 02:02:51 AM 48.8500 -50.5833 71° East 530 610 41,000  Level Gander Center
Fri 02:03:51 AM 48.8833 -50.3500 78° East 550 633 41,000  Level Gander Center
Fri 02:04:51 AM 48.9333 -50.1667 67° East 550 633 41,000  Level Gander Center
Fri 02:05:51 AM 48.9833 -49.9167 73° East 550 633 41,000  Level Gander Center
Fri 02:06:51 AM 49.0167 -49.7000 77° East 550 633 41,000  Level Gander Center
Fri 02:07:51 AM 49.0500 -49.4833 77° East 550 633 41,000  Level Gander Center
Fri 02:08:51 AM 49.0833 -49.2333 78° East 550 633 41,000  Level Gander Center
Fri 02:09:51 AM 49.1000 -49.0167 83° East 550 633 41,000  Level Gander Center
Fri 02:10:51 AM 49.1500 -48.7667 73° East 540 621 41,000  Level Gander Center
Fri 02:11:51 AM 49.1667 -48.5667 83° East 540 621 41,000  Level Gander Center
Fri 02:12:51 AM 49.2000 -48.3500 77° East 530 610 41,000  Level Gander Center
Fri 02:13:51 AM 49.2500 -48.1333 78° East 540 621 41,000  Level Gander Center
Fri 02:14:00 AM 49.2325 -48.1052 78° East  Level FlightAware Approximate
Fri 02:14:49 AM 49.2500 -47.9167 90° East 530 610 41,000  Level Gander Center
Fri 02:16:00 AM 49.2818 -47.6714 79° East  Level FlightAware Approximate
Fri 02:23:00 AM 49.4591 -46.2144 79° East  Level FlightAware Approximate
Fri 02:24:00 AM 49.4829 -46.0054 80° East  Level FlightAware Approximate
Fri 02:25:00 AM 49.5064 -45.7962 80° East  Level FlightAware Approximate
Fri 02:26:00 AM 49.5295 -45.5868 80° East  Level FlightAware Approximate
Fri 02:27:00 AM 49.5522 -45.3773 80° East  Level FlightAware Approximate
Fri 02:28:00 AM 49.5745 -45.1675 81° East  Level FlightAware Approximate
Fri 02:29:00 AM 49.5964 -44.9575 81° East  Level FlightAware Approximate
Fri 02:30:00 AM 49.6180 -44.7473 81° East  Level FlightAware Approximate
Fri 02:31:00 AM 49.6392 -44.5370 81° East  Level FlightAware Approximate
Fri 02:32:00 AM 49.6600 -44.3265 81° East  Level FlightAware Approximate
Fri 02:33:00 AM 49.6804 -44.1158 81° East  Level FlightAware Approximate
Fri 02:34:00 AM 49.7004 -43.9049 82° East  Level FlightAware Approximate
Fri 02:35:00 AM 49.7201 -43.6939 82° East  Level FlightAware Approximate
Fri 02:36:00 AM 49.7394 -43.4827 82° East  Level FlightAware Approximate
Fri 02:37:00 AM 49.7582 -43.2713 82° East  Level FlightAware Approximate
Fri 02:38:00 AM 49.7767 -43.0597 82° East  Level FlightAware Approximate
Fri 02:39:00 AM 49.7948 -42.8480 82° East  Level FlightAware Approximate
Fri 02:40:00 AM 49.8126 -42.6362 83° East  Level FlightAware Approximate
Fri 02:41:00 AM 49.8299 -42.4241 83° East  Level FlightAware Approximate
Fri 02:42:00 AM 49.8469 -42.2120 83° East  Level FlightAware Approximate
Fri 02:43:00 AM 49.8634 -41.9997 83° East  Level FlightAware Approximate
Fri 02:44:00 AM 49.8796 -41.7872 83° East  Level FlightAware Approximate
Fri 02:45:00 AM 49.8954 -41.5746 83° East  Level FlightAware Approximate
Fri 02:46:00 AM 49.9108 -41.3619 84° East  Level FlightAware Approximate
Fri 02:47:00 AM 49.9258 -41.1490 84° East  Level FlightAware Approximate
Fri 02:48:00 AM 49.9404 -40.9360 84° East  Level FlightAware Approximate
Fri 02:49:00 AM 49.9547 -40.7229 84° East  Level FlightAware Approximate
Fri 02:50:00 AM 49.9685 -40.5096 84° East  Level FlightAware Approximate
Fri 02:51:00 AM 49.9820 -40.2962 84° East  Level FlightAware Approximate
Fri 02:52:00 AM 49.9950 -40.0827 84° East  Level FlightAware Approximate
Fri 02:53:00 AM 49.9927 -39.8697 95° East  Level FlightAware Approximate
Fri 02:54:00 AM 49.9804 -39.6562 95° East  Level FlightAware Approximate
Fri 02:55:00 AM 49.9678 -39.4427 95° East  Level FlightAware Approximate
Fri 02:56:00 AM 49.9547 -39.2293 95° East  Level FlightAware Approximate
Fri 02:57:00 AM 49.9413 -39.0160 96° East  Level FlightAware Approximate
Fri 02:58:00 AM 49.9274 -38.8029 96° East  Level FlightAware Approximate
Fri 02:59:00 AM 49.9132 -38.5899 96° East  Level FlightAware Approximate
Fri 03:00:00 AM 49.8986 -38.3770 96° East  Level FlightAware Approximate
Fri 03:01:00 AM 49.8836 -38.1643 96° East  Level FlightAware Approximate
Fri 03:02:00 AM 49.8682 -37.9517 96° East  Level FlightAware Approximate
Fri 03:03:00 AM 49.8524 -37.7392 96° East  Level FlightAware Approximate
Fri 03:04:00 AM 49.8362 -37.5268 97° East  Level FlightAware Approximate
Fri 03:05:00 AM 49.8196 -37.3147 97° East  Level FlightAware Approximate
Fri 03:06:00 AM 49.8027 -37.1026 97° East  Level FlightAware Approximate
Fri 03:07:00 AM 49.7854 -36.8907 97° East  Level FlightAware Approximate
Fri 03:08:00 AM 49.7676 -36.6790 97° East  Level FlightAware Approximate
Fri 03:09:00 AM 49.7495 -36.4674 97° East  Level FlightAware Approximate
Fri 03:10:00 AM 49.7310 -36.2559 98° East  Level FlightAware Approximate
Fri 03:11:00 AM 49.7122 -36.0447 98° East  Level FlightAware Approximate
Fri 03:12:00 AM 49.6929 -35.8336 98° East  Level FlightAware Approximate
Fri 03:13:00 AM 49.6733 -35.6226 98° East  Level FlightAware Approximate
Fri 03:14:00 AM 49.6532 -35.4119 98° East  Level FlightAware Approximate
Fri 03:15:00 AM 49.6328 -35.2013 98° East  Level FlightAware Approximate
Fri 03:16:00 AM 49.6120 -34.9909 99° East  Level FlightAware Approximate
Fri 03:17:00 AM 49.5909 -34.7807 99° East  Level FlightAware Approximate
Fri 03:18:00 AM 49.5693 -34.5706 99° East  Level FlightAware Approximate
Fri 03:19:00 AM 49.5474 -34.3608 99° East  Level FlightAware Approximate
Fri 03:20:00 AM 49.5251 -34.1511 99° East  Level FlightAware Approximate
Fri 03:21:00 AM 49.5024 -33.9417 99° East  Level FlightAware Approximate
Fri 03:22:00 AM 49.4793 -33.7324 100° East  Level FlightAware Approximate
Fri 03:23:00 AM 49.4559 -33.5233 100° East  Level FlightAware Approximate
Fri 03:24:00 AM 49.4320 -33.3144 100° East  Level FlightAware Approximate
Fri 03:25:00 AM 49.4078 -33.1058 100° East  Level FlightAware Approximate
Fri 03:26:00 AM 49.3833 -32.8973 100° East  Level FlightAware Approximate
Fri 03:27:00 AM 49.3583 -32.6890 100° East  Level FlightAware Approximate
Fri 03:28:00 AM 49.3330 -32.4810 101° East  Level FlightAware Approximate
Fri 03:29:00 AM 49.3073 -32.2732 101° East  Level FlightAware Approximate
Fri 03:30:00 AM 49.2813 -32.0656 101° East  Level FlightAware Approximate
Fri 03:31:00 AM 49.2548 -31.8582 101° East  Level FlightAware Approximate
Fri 03:32:00 AM 49.2280 -31.6510 101° East  Level FlightAware Approximate
Fri 03:33:00 AM 49.2008 -31.4441 101° East  Level FlightAware Approximate
Fri 03:34:00 AM 49.1733 -31.2374 101° East  Level FlightAware Approximate
Fri 03:35:00 AM 49.1454 -31.0309 102° East  Level FlightAware Approximate
Fri 03:36:00 AM 49.1171 -30.8246 102° East  Level FlightAware Approximate
Fri 03:37:00 AM 49.0884 -30.6186 102° East  Level FlightAware Approximate
Fri 03:38:00 AM 49.0594 -30.4129 102° East  Level FlightAware Approximate
Fri 03:39:00 AM 49.0300 -30.2073 102° East  Level FlightAware Approximate
Fri 03:40:00 AM 49.0003 -30.0021 102° East  Level FlightAware Approximate
Fri 03:41:00 AM 48.9694 -29.7973 103° East  Level FlightAware Approximate
Fri 03:42:00 AM 48.9381 -29.5928 103° East  Level FlightAware Approximate
Fri 03:43:00 AM 48.9065 -29.3886 103° East  Level FlightAware Approximate
Fri 03:44:00 AM 48.8745 -29.1846 103° East  Level FlightAware Approximate
Fri 03:45:00 AM 48.8421 -28.9809 103° East  Level FlightAware Approximate
Fri 03:46:00 AM 48.8094 -28.7774 104° East  Level FlightAware Approximate
Fri 03:47:00 AM 48.7764 -28.5742 104° East  Level FlightAware Approximate
Fri 03:48:00 AM 48.7429 -28.3713 104° East  Level FlightAware Approximate
Fri 03:49:00 AM 48.7091 -28.1687 104° East  Level FlightAware Approximate
Fri 03:50:00 AM 48.6750 -27.9663 104° East  Level FlightAware Approximate
Fri 03:51:00 AM 48.6405 -27.7642 104° East  Level FlightAware Approximate
Fri 03:52:00 AM 48.6057 -27.5624 105° East  Level FlightAware Approximate
Fri 03:52:00 AM 49.0000 -30.0000 103° East 512 589 41,000  Level ETMS Enhanced Traffic Management System
Fri 03:53:00 AM 48.5705 -27.3608 105° East  Level FlightAware Approximate
Fri 03:54:00 AM 48.5349 -27.1596 105° East  Level FlightAware Approximate
Fri 03:55:00 AM 48.4990 -26.9586 105° East  Level FlightAware Approximate
Fri 03:56:00 AM 48.4628 -26.7579 105° East  Level FlightAware Approximate
Fri 03:57:00 AM 48.4262 -26.5575 105° East  Level FlightAware Approximate
Fri 03:58:00 AM 48.3282 -26.0312 106° East 512 589 41,000  Level FlightAware Transoceanic
Fri 03:59:00 AM 48.2890 -25.8253 106° East 512 589 41,000  Level FlightAware Transoceanic
Fri 04:00:00 AM 48.2496 -25.6197 106° East 512 589 41,000  Level FlightAware Transoceanic
Fri 04:01:00 AM 48.2097 -25.4145 106° East 512 589 41,000  Level FlightAware Transoceanic
Fri 04:02:00 AM 48.1695 -25.2096 106° East 512 589 41,000  Level FlightAware Transoceanic
Fri 04:03:00 AM 48.1290 -25.0050 107° East 512 589 41,000  Level FlightAware Transoceanic
Fri 04:04:00 AM 48.0881 -24.8007 107° East 512 589 41,000  Level FlightAware Transoceanic
Fri 04:05:00 AM 48.0468 -24.5968 107° East 512 589 41,000  Level FlightAware Transoceanic
Fri 04:06:00 AM 48.0051 -24.3932 107° East 512 589 41,000  Level FlightAware Transoceanic
Fri 04:07:00 AM 47.9631 -24.1899 107° East 512 589 41,000  Level FlightAware Transoceanic
Fri 04:08:00 AM 47.9207 -23.9869 107° East 512 589 41,000  Level FlightAware Transoceanic
Fri 04:09:00 AM 47.8780 -23.7843 108° East 512 589 41,000  Level FlightAware Transoceanic
Fri 04:10:00 AM 47.8349 -23.5820 108° East 512 589 41,000  Level FlightAware Transoceanic
Fri 04:11:00 AM 47.7915 -23.3801 108° East 512 589 41,000  Level FlightAware Transoceanic
Fri 04:12:00 AM 47.7477 -23.1785 108° East 512 589 41,000  Level FlightAware Transoceanic
Fri 04:13:00 AM 47.7036 -22.9772 108° East 512 589 41,000  Level FlightAware Transoceanic
Fri 04:14:00 AM 47.6591 -22.7763 108° East 512 589 41,000  Level FlightAware Transoceanic
Fri 04:15:00 AM 47.6143 -22.5757 108° East 512 589 41,000  Level FlightAware Transoceanic
Fri 04:16:00 AM 47.5691 -22.3754 109° East 512 589 41,000  Level FlightAware Transoceanic
Fri 04:17:00 AM 47.5235 -22.1756 109° East 512 589 41,000  Level FlightAware Transoceanic
Fri 04:18:00 AM 47.4776 -21.9760 109° East 512 589 41,000  Level FlightAware Transoceanic
Fri 04:19:00 AM 47.4314 -21.7768 109° East 512 589 41,000  Level FlightAware Transoceanic
Fri 04:20:00 AM 47.3848 -21.5780 109° East 512 589 41,000  Level FlightAware Transoceanic
Fri 04:21:00 AM 47.3379 -21.3795 109° East 512 589 41,000  Level FlightAware Transoceanic
Fri 04:22:00 AM 47.2907 -21.1813 109° East 512 589 41,000  Level FlightAware Transoceanic
Fri 04:23:00 AM 47.2431 -20.9835 110° East 512 589 41,000  Level FlightAware Transoceanic
Fri 04:24:00 AM 47.1951 -20.7861 110° East 512 589 41,000  Level FlightAware Transoceanic
Fri 04:25:00 AM 47.1469 -20.5891 110° East 512 589 41,000  Level FlightAware Transoceanic
Fri 04:26:00 AM 47.0982 -20.3923 110° East 512 589 41,000  Level FlightAware Transoceanic
Fri 04:27:00 AM 47.0493 -20.1960 110° East 512 589 41,000  Level FlightAware Transoceanic
Fri 04:28:00 AM 47.0016 -20.0062 110° East  Level FlightAware Approximate
Fri 04:29:00 AM 46.9536 -19.8168 110° East  Level FlightAware Approximate
Fri 04:30:00 AM 46.9508 -19.8255 112° Southeast  Level FlightAware Approximate
Fri 04:31:00 AM 46.8978 -19.6391 113° Southeast  Level FlightAware Approximate
Fri 04:32:00 AM 46.8446 -19.4531 113° Southeast  Level FlightAware Approximate
Fri 04:33:00 AM 46.7910 -19.2674 113° Southeast  Level FlightAware Approximate
Fri 04:34:00 AM 46.7371 -19.0821 113° Southeast  Level FlightAware Approximate
Fri 04:35:00 AM 46.6829 -18.8972 113° Southeast  Level FlightAware Approximate
Fri 04:36:00 AM 46.6285 -18.7127 113° Southeast  Level FlightAware Approximate
Fri 04:37:00 AM 46.5737 -18.5285 113° Southeast  Level FlightAware Approximate
Fri 04:38:00 AM 46.5187 -18.3447 113° Southeast  Level FlightAware Approximate
Fri 04:39:00 AM 46.4633 -18.1612 114° Southeast  Level FlightAware Approximate
Fri 04:40:00 AM 46.4077 -17.9782 114° Southeast  Level FlightAware Approximate
Fri 04:41:00 AM 46.3518 -17.7955 114° Southeast  Level FlightAware Approximate
Fri 04:42:00 AM 46.2955 -17.6132 114° Southeast  Level FlightAware Approximate
Fri 04:43:00 AM 46.2390 -17.4313 114° Southeast  Level FlightAware Approximate
Fri 04:44:00 AM 46.1822 -17.2497 114° Southeast  Level FlightAware Approximate
Fri 04:45:00 AM 46.1251 -17.0685 114° Southeast  Level FlightAware Approximate
Fri 04:46:00 AM 46.0678 -16.8877 115° Southeast  Level FlightAware Approximate
Fri 04:47:00 AM 46.0101 -16.7073 115° Southeast  Level FlightAware Approximate
Fri 04:48:00 AM 45.9522 -16.5272 115° Southeast  Level FlightAware Approximate
Fri 04:49:00 AM 45.8940 -16.3475 115° Southeast  Level FlightAware Approximate
Fri 04:50:00 AM 45.8354 -16.1682 115° Southeast  Level FlightAware Approximate
Fri 04:51:00 AM 45.7767 -15.9893 115° Southeast  Level FlightAware Approximate
Fri 04:52:00 AM 45.7176 -15.8108 115° Southeast  Level FlightAware Approximate
Fri 04:53:00 AM 45.6583 -15.6326 115° Southeast  Level FlightAware Approximate
Fri 04:54:00 AM 45.5987 -15.4548 116° Southeast  Level FlightAware Approximate
Fri 04:55:00 AM 45.5388 -15.2774 116° Southeast  Level FlightAware Approximate
Fri 04:56:00 AM 45.4786 -15.1004 116° Southeast  Level FlightAware Approximate
Fri 04:57:00 AM 45.4183 -14.9237 116° Southeast  Level FlightAware Approximate
Fri 04:58:00 AM 45.3577 -14.7473 116° Southeast  Level FlightAware Approximate
Fri 04:59:00 AM 45.2969 -14.5713 116° Southeast  Level FlightAware Approximate
Fri 05:00:00 AM 45.2358 -14.3956 116° Southeast  Level FlightAware Approximate
Fri 05:01:00 AM 45.1745 -14.2204 116° Southeast  Level FlightAware Approximate
Fri 05:02:00 AM 45.1129 -14.0455 116° Southeast  Level FlightAware Approximate
Fri 05:03:00 AM 45.0510 -13.8710 117° Southeast  Level FlightAware Approximate
Fri 05:04:00 AM 44.9888 -13.6969 117° Southeast  Level FlightAware Approximate
Fri 05:05:00 AM 44.9264 -13.5231 117° Southeast  Level FlightAware Approximate
Fri 05:06:00 AM 44.8638 -13.3498 117° Southeast  Level FlightAware Approximate
Fri 05:07:00 AM 44.8008 -13.1768 117° Southeast  Level FlightAware Approximate
Fri 05:08:00 AM 44.7378 -13.0041 117° Southeast  Level FlightAware Approximate
Fri 05:09:00 AM 44.6745 -12.8316 117° Southeast  Level FlightAware Approximate
Fri 05:10:00 AM 44.6111 -12.6596 117° Southeast  Level FlightAware Approximate
Fri 05:11:00 AM 44.5474 -12.4879 117° Southeast  Level FlightAware Approximate
Fri 05:12:00 AM 44.4834 -12.3167 118° Southeast  Level FlightAware Approximate
Fri 05:13:00 AM 44.4192 -12.1457 118° Southeast  Level FlightAware Approximate
Fri 05:14:00 AM 44.3547 -11.9752 118° Southeast  Level FlightAware Approximate
Fri 05:15:00 AM 44.2899 -11.8050 118° Southeast  Level FlightAware Approximate
Fri 05:16:00 AM 44.2249 -11.6353 118° Southeast  Level FlightAware Approximate
Fri 05:17:00 AM 44.1597 -11.4658 118° Southeast  Level FlightAware Approximate
Fri 05:18:00 AM 44.0942 -11.2968 118° Southeast  Level FlightAware Approximate
Fri 05:19:00 AM 44.0286 -11.1280 118° Southeast  Level FlightAware Approximate
Fri 05:20:00 AM 43.9631 -10.9594 118° Southeast  Level FlightAware Approximate
Fri 05:21:00 AM 43.8974 -10.7911 118° Southeast  Level FlightAware Approximate
Fri 05:22:00 AM 43.8314 -10.6231 119° Southeast  Level FlightAware Approximate
Fri 05:23:00 AM 43.7651 -10.4556 119° Southeast  Level FlightAware Approximate
Fri 05:24:00 AM 43.6987 -10.2884 119° Southeast  Level FlightAware Approximate
Fri 05:25:00 AM 43.6314 -10.1221 119° Southeast  Level FlightAware Approximate
Fri 05:26:00 AM 43.5637 -9.9562 119° Southeast  Level FlightAware Approximate
Fri 05:27:00 AM 43.4958 -9.7907 119° Southeast  Level FlightAware Approximate
Fri 05:28:00 AM 43.4276 -9.6256 120° Southeast  Level FlightAware Approximate
Fri 05:29:00 AM 43.3592 -9.4608 120° Southeast  Level FlightAware Approximate
Fri 05:30:00 AM 43.2906 -9.2964 120° Southeast  Level FlightAware Approximate
Fri 05:31:00 AM 43.2218 -9.1324 120° Southeast  Level FlightAware Approximate
Fri 05:32:00 AM 43.1527 -8.9687 120° Southeast  Level FlightAware Approximate
Fri 05:33:00 AM 43.0833 -8.8055 120° Southeast  Level FlightAware Approximate
Fri 05:34:00 AM 43.0138 -8.6425 120° Southeast  Level FlightAware Approximate
Fri 05:35:00 AM 42.9440 -8.4800 120° Southeast  Level FlightAware Approximate
Fri 05:36:00 AM 42.8708 -8.3205 123° Southeast  Level FlightAware Approximate
Fri 05:37:00 AM 42.7953 -8.1632 123° Southeast  Level FlightAware Approximate
Fri 05:38:00 AM 42.7196 -8.0062 123° Southeast  Level FlightAware Approximate
Fri 05:39:00 AM 42.6437 -7.8496 123° Southeast  Level FlightAware Approximate
Fri 05:40:00 AM 42.5676 -7.6934 123° Southeast  Level FlightAware Approximate
Fri 05:41:00 AM 42.4913 -7.5376 124° Southeast  Level FlightAware Approximate
Fri 05:42:00 AM 42.4148 -7.3821 124° Southeast  Level FlightAware Approximate
Fri 05:43:00 AM 42.3381 -7.2270 124° Southeast  Level FlightAware Approximate
Fri 05:44:00 AM 42.2611 -7.0724 124° Southeast  Level FlightAware Approximate
Fri 05:45:00 AM 42.1835 -6.9184 124° Southeast  Level FlightAware Approximate
Fri 05:46:00 AM 42.1055 -6.7652 124° Southeast  Level FlightAware Approximate
Fri 05:47:00 AM 42.0272 -6.6122 125° Southeast  Level FlightAware Approximate
Fri 05:48:00 AM 41.9487 -6.4597 125° Southeast  Level FlightAware Approximate
Fri 05:49:00 AM 41.8700 -6.3075 125° Southeast  Level FlightAware Approximate
Fri 05:50:00 AM 41.7912 -6.1558 125° Southeast  Level FlightAware Approximate
Fri 05:51:00 AM 41.7121 -6.0044 125° Southeast  Level FlightAware Approximate
Fri 05:52:00 AM 41.6328 -5.8533 125° Southeast  Level FlightAware Approximate
Fri 05:53:00 AM 41.5534 -5.7027 125° Southeast  Level FlightAware Approximate
Fri 05:54:00 AM 41.4621 -5.5661 137° Southeast  Level FlightAware Approximate
Fri 05:55:00 AM 41.3606 -5.4415 137° Southeast  Level FlightAware Approximate
Fri 05:56:00 AM 41.2590 -5.3174 137° Southeast  Level FlightAware Approximate
Fri 05:57:00 AM 41.1573 -5.1937 137° Southeast  Level FlightAware Approximate
Fri 05:58:00 AM 41.0555 -5.0703 138° Southeast  Level FlightAware Approximate
Fri 05:59:00 AM 40.9535 -4.9474 138° Southeast  Level FlightAware Approximate
Fri 06:00:00 AM 40.8514 -4.8248 138° Southeast  Level FlightAware Approximate
Fri 06:01:00 AM 40.7491 -4.7026 138° Southeast  Level FlightAware Approximate
Fri 06:02:00 AM 40.6468 -4.5807 138° Southeast  Level FlightAware Approximate
Fri 06:03:00 AM 40.5443 -4.4593 138° Southeast  Level FlightAware Approximate
Fri 06:04:00 AM 40.4417 -4.3382 138° Southeast  Level FlightAware Approximate
Fri 06:05:00 AM 40.3556 -4.2034 107° East  Level FlightAware Approximate
Fri 06:06:00 AM 40.3144 -4.0307 107° East  Level FlightAware Approximate
Fri 06:07:00 AM 40.2730 -3.8583 107° East  Level FlightAware Approximate
Fri 06:08:00 AM 40.2314 -3.6861 108° East  Level FlightAware Approximate
Fri 06:09:00 AM 40.1894 -3.5141 108° East  Level FlightAware Approximate
Fri 06:10:00 AM 40.1473 -3.3423 108° East  Level FlightAware Approximate
Fri 06:11:00 AM 40.1048 -3.1707 108° East  Level FlightAware Approximate
Fri 06:12:00 AM 40.0621 -2.9994 108° East  Level FlightAware Approximate
Fri 06:13:00 AM 40.0192 -2.8282 108° East  Level FlightAware Approximate
Fri 06:14:00 AM 39.9760 -2.6573 108° East  Level FlightAware Approximate
Fri 06:15:00 AM 39.9326 -2.4866 108° East  Level FlightAware Approximate
Fri 06:16:00 AM 39.8889 -2.3161 108° East  Level FlightAware Approximate
Fri 06:17:00 AM 39.8450 -2.1458 109° East  Level FlightAware Approximate
Fri 06:18:00 AM 39.8008 -1.9757 109° East  Level FlightAware Approximate
Fri 06:19:00 AM 39.7563 -1.8059 109° East  Level FlightAware Approximate
Fri 06:20:00 AM 39.7117 -1.6363 109° East  Level FlightAware Approximate
Fri 06:21:00 AM 39.6667 -1.4669 109° East  Level FlightAware Approximate
Fri 06:22:00 AM 39.6156 -1.3006 112° Southeast  Level FlightAware Approximate
Fri 06:23:00 AM 39.5725 -1.1308 107° East  Level FlightAware Approximate
Fri 06:24:00 AM 39.5317 -0.9600 108° East  Level FlightAware Approximate
Fri 06:25:00 AM 39.4837 -0.7926 112° Southeast  Level FlightAware Approximate
Fri 06:26:00 AM 39.4355 -0.6253 108° East  Level FlightAware Approximate
Fri 06:27:00 AM 39.3869 -0.4583 111° Southeast  Level FlightAware Approximate
Fri 06:28:00 AM 39.3387 -0.2913 109° East  Level FlightAware Approximate
Fri 06:29:00 AM 39.2932 -0.1230 109° East  Level FlightAware Approximate
Fri 06:30:00 AM 39.2475 0.0450 109° East  Level FlightAware Approximate
Fri 06:31:00 AM 39.2016 0.2129 109° East  Level FlightAware Approximate
Fri 06:32:00 AM 39.1554 0.3805 110° East  Level FlightAware Approximate
Fri 06:33:00 AM 39.1020 0.5443 113° Southeast  Level FlightAware Approximate
Fri 06:34:00 AM 39.0556 0.7113 108° East  Level FlightAware Approximate
Fri 06:35:00 AM 39.0123 0.8798 113° Southeast  Level FlightAware Approximate
Fri 06:36:00 AM 38.9580 1.0428 113° Southeast  Level FlightAware Approximate
Fri 06:37:00 AM 38.9105 1.2040 102° East  Level FlightAware Approximate
Fri 06:38:00 AM 38.8667 1.3667 113° Southeast  Level FlightAware Approximate
Fri 06:39:00 AM 38.8729 1.3731 113° Southeast  Level Estimated
Fri 06:40:00 AM 38.8729 1.3731 113° Southeast  Level Estimated
Fri 06:41:00 AM 38.8729 1.3731 113° Southeast  Level Estimated
Fri 06:42:00 AM 38.8729 1.3731 113° Southeast  Level Estimated
Fri 06:43:00 AM 38.8729 1.3731 113° Southeast  Level Estimated
Fri 06:44:00 AM 38.8729 1.3731 113° Southeast  Level Estimated
Fri 06:45:00 AM 38.8729 1.3731 113° Southeast  Level Estimated
Fri 06:46:00 AM 38.8729 1.3731 113° Southeast  Level Estimated
Fri 06:47:00 AM 38.8729 1.3731 113° Southeast  Level Estimated
Fri 06:48:00 AM 38.8729 1.3731 113° Southeast  Level Estimated
Fri 06:49:00 AM 38.8729 1.3731 113° Southeast  Level Estimated
Fri 06:50:00 AM 38.8729 1.3731 113° Southeast  Level Estimated
Fri 06:51:00 AM 38.8729 1.3731 113° Southeast  Level Estimated
Fri 06:52:00 AM 38.8729 1.3731 113° Southeast  Level Estimated
Fri 06:53:00 AM 38.8729 1.3731 113° Southeast  Level Estimated
Fri 06:54:00 AM 38.8729 1.3731 113° Southeast  Level Estimated
Fri 06:55:00 AM 38.8729 1.3731 113° Southeast  Level Estimated
Fri 06:56:00 AM 38.8729 1.3731 113° Southeast  Level Estimated
Fri 06:57:00 AM 38.8729 1.3731 113° Southeast  Level Estimated
Fri 06:58:00 AM 38.8729 1.3731 113° Southeast  Level Estimated

Login

Don't have an account? Register now (free) for customized features, flight alerts, and more!